createdAt,value
2019-01-12T00:00:57.415Z,47.77
2019-01-12T00:03:28.725Z,56.33
2019-01-12T00:06:02.187Z,48.47
2019-01-12T00:08:33.361Z,47.23
2019-01-12T00:11:06.929Z,54.53
2019-01-12T00:13:38.231Z,48.73
2019-01-12T00:16:09.592Z,52.70
2019-01-12T00:18:41.015Z,53.77
2019-01-12T00:21:12.266Z,50.27
2019-01-12T00:23:43.515Z,48.53
2019-01-12T00:26:17.224Z,45.43
2019-01-12T00:28:48.348Z,47.60
2019-01-12T00:31:19.422Z,43.37
2019-01-12T00:33:50.723Z,42.13
2019-01-12T00:36:21.981Z,50.10
2019-01-12T00:38:53.335Z,38.37
2019-01-12T00:41:24.527Z,46.07
2019-01-12T00:43:55.558Z,45.17
2019-01-12T00:46:26.846Z,46.83
2019-01-12T00:48:58.024Z,45.97
2019-01-12T00:51:29.099Z,43.50
2019-01-12T00:54:00.404Z,53.03
2019-01-12T00:56:31.524Z,43.47
2019-01-12T00:59:04.693Z,45.90
2019-01-12T01:01:36.063Z,45.83
2019-01-12T01:04:10.206Z,42.97
2019-01-12T01:06:43.432Z,45.63
2019-01-12T01:09:14.429Z,42.67
2019-01-12T01:11:48.413Z,46.50
2019-01-12T01:14:20.728Z,44.97
2019-01-12T01:16:51.927Z,43.53
2019-01-12T01:19:23.133Z,44.00
2019-01-12T01:21:54.257Z,52.00
2019-01-12T01:24:25.641Z,50.07
2019-01-12T01:26:58.451Z,43.70
2019-01-12T01:29:29.730Z,44.47
2019-01-12T01:32:00.954Z,47.03
2019-01-12T01:34:32.318Z,44.73
2019-01-12T01:37:04.748Z,44.07
2019-01-12T01:39:36.088Z,38.27
2019-01-12T01:42:08.647Z,41.60
2019-01-12T01:44:39.969Z,41.53
2019-01-12T01:47:11.256Z,49.80
2019-01-12T01:49:42.510Z,45.07
2019-01-12T01:52:13.786Z,45.97
2019-01-12T01:54:45.026Z,50.57
2019-01-12T01:57:16.277Z,44.37
2019-01-12T01:59:47.620Z,48.70
2019-01-12T02:02:18.973Z,45.63
2019-01-12T02:04:50.140Z,54.30
2019-01-12T02:07:21.356Z,49.47
2019-01-12T02:09:52.915Z,49.73
2019-01-12T02:12:24.069Z,51.67
2019-01-12T02:14:55.254Z,49.43
2019-01-12T02:17:26.340Z,48.37
2019-01-12T02:19:57.646Z,53.63
2019-01-12T02:22:28.976Z,46.53
2019-01-12T02:25:00.441Z,44.10
2019-01-12T02:27:31.502Z,53.70
2019-01-12T02:30:02.757Z,44.57
2019-01-12T02:32:34.079Z,49.00
2019-01-12T02:35:05.697Z,44.70
2019-01-12T02:37:36.958Z,49.40
2019-01-12T02:40:08.348Z,59.80
2019-01-12T02:42:39.634Z,54.73
2019-01-12T02:45:11.293Z,58.73
2019-01-12T02:47:44.364Z,60.17
2019-01-12T02:50:15.588Z,53.90
2019-01-12T02:52:46.980Z,60.37
2019-01-12T02:55:18.147Z,65.17
2019-01-12T02:57:49.498Z,51.90
2019-01-12T03:00:20.998Z,50.97
2019-01-12T03:02:53.878Z,55.93
2019-01-12T03:05:25.064Z,48.03
2019-01-12T03:07:56.142Z,40.20
2019-01-12T03:10:27.488Z,38.20
2019-01-12T03:12:58.673Z,35.97
2019-01-12T03:15:29.960Z,37.67
2019-01-12T03:18:01.097Z,36.47
2019-01-12T03:20:32.496Z,38.43
2019-01-12T03:23:03.678Z,36.93
2019-01-12T03:25:35.015Z,35.93
2019-01-12T03:28:08.318Z,32.23
2019-01-12T03:30:39.710Z,33.60
2019-01-12T03:33:11.036Z,32.00
2019-01-12T03:35:42.355Z,31.77
2019-01-12T03:38:13.480Z,33.63
2019-01-12T03:40:44.852Z,32.63
2019-01-12T03:43:16.116Z,30.93
2019-01-12T03:45:47.407Z,34.57
2019-01-12T03:48:18.734Z,34.60
2019-01-12T03:50:50.009Z,32.27
2019-01-12T03:53:21.272Z,36.80
2019-01-12T03:55:52.569Z,36.97
2019-01-12T03:58:25.228Z,34.87
2019-01-12T04:00:56.600Z,32.60
2019-01-12T04:03:27.858Z,31.07
2019-01-12T04:05:59.102Z,33.77
2019-01-12T04:08:30.425Z,33.37
2019-01-12T04:11:01.906Z,31.57
2019-01-12T04:13:33.046Z,30.30
2019-01-12T04:16:04.496Z,31.03
2019-01-12T04:18:35.797Z,29.27
2019-01-12T04:21:07.118Z,26.57
2019-01-12T04:23:38.440Z,29.97
2019-01-12T04:26:09.766Z,40.70
2019-01-12T04:28:41.049Z,26.23
2019-01-12T04:31:12.138Z,32.97
2019-01-12T04:33:43.318Z,27.90
2019-01-12T04:36:14.613Z,30.30
2019-01-12T04:38:45.869Z,28.20
2019-01-12T04:41:17.135Z,29.70
2019-01-12T04:43:48.350Z,30.60
2019-01-12T04:46:19.661Z,26.63
2019-01-12T04:48:50.824Z,28.23
2019-01-12T04:51:22.056Z,29.33
2019-01-12T04:53:53.391Z,24.80
2019-01-12T04:56:24.621Z,27.37
2019-01-12T04:58:55.872Z,32.50
2019-01-12T05:01:27.142Z,27.13
2019-01-12T05:03:58.252Z,30.77
2019-01-12T05:06:29.593Z,32.13
2019-01-12T05:09:00.764Z,34.83
2019-01-12T05:11:33.514Z,28.47
2019-01-12T05:14:04.721Z,26.83
2019-01-12T05:16:35.867Z,29.77
2019-01-12T05:19:07.144Z,27.03
2019-01-12T05:21:38.320Z,28.10
2019-01-12T05:24:09.652Z,37.37
2019-01-12T05:26:40.826Z,27.57
2019-01-12T05:29:12.000Z,30.40
2019-01-12T05:31:43.384Z,29.00
2019-01-12T05:34:14.523Z,31.07
2019-01-12T05:36:45.812Z,30.37
2019-01-12T05:39:18.208Z,26.77
2019-01-12T05:41:49.437Z,30.10
2019-01-12T05:44:20.482Z,28.53
2019-01-12T05:46:51.642Z,28.47
2019-01-12T05:49:25.090Z,28.47
2019-01-12T05:51:56.171Z,43.00
2019-01-12T05:54:27.354Z,28.10
2019-01-12T05:56:58.573Z,27.10
2019-01-12T05:59:31.829Z,29.83
2019-01-12T06:02:03.099Z,34.90
2019-01-12T06:04:34.256Z,29.57
2019-01-12T06:07:06.509Z,29.20
2019-01-12T06:09:37.787Z,28.70
2019-01-12T06:12:09.061Z,27.30
2019-01-12T06:14:41.157Z,29.00
2019-01-12T06:17:12.455Z,30.83
2019-01-12T06:19:43.766Z,30.33
2019-01-12T06:22:15.160Z,28.40
2019-01-12T06:24:46.307Z,25.63
2019-01-12T06:27:17.404Z,27.40
2019-01-12T06:29:48.593Z,24.53
2019-01-12T06:32:19.922Z,30.13
2019-01-12T06:34:51.051Z,30.03
2019-01-12T06:37:22.211Z,30.17
2019-01-12T06:39:53.363Z,33.30
2019-01-12T06:42:25.951Z,26.17
2019-01-12T06:44:57.097Z,28.23
2019-01-12T06:47:28.371Z,27.90
2019-01-12T06:49:59.597Z,23.03
2019-01-12T06:52:30.691Z,25.90
2019-01-12T06:55:01.969Z,27.87
2019-01-12T06:57:33.232Z,25.93
2019-01-12T07:00:05.955Z,25.97
2019-01-12T07:02:37.063Z,28.43
2019-01-12T07:05:08.799Z,24.27
2019-01-12T07:07:40.110Z,25.83
2019-01-12T07:10:12.135Z,32.80
2019-01-12T07:12:43.462Z,29.83
2019-01-12T07:15:15.079Z,27.60
2019-01-12T07:17:46.406Z,28.43
2019-01-12T07:20:18.177Z,27.83
2019-01-12T07:22:51.786Z,33.17
2019-01-12T07:25:22.964Z,30.37
2019-01-12T07:27:54.248Z,29.30
2019-01-12T07:30:25.569Z,29.10
2019-01-12T07:32:56.764Z,32.60
2019-01-12T07:35:28.131Z,33.23
2019-01-12T07:37:59.284Z,28.53
2019-01-12T07:40:30.327Z,29.23
2019-01-12T07:43:01.499Z,33.27
2019-01-12T07:45:34.426Z,34.03
2019-01-12T07:48:06.034Z,24.93
2019-01-12T07:50:37.565Z,28.67
2019-01-12T07:53:08.966Z,29.93
2019-01-12T07:55:40.150Z,31.60
2019-01-12T07:58:11.330Z,28.27
2019-01-12T08:00:42.555Z,28.17
2019-01-12T08:03:13.899Z,28.07
2019-01-12T08:05:45.120Z,28.80
2019-01-12T08:08:16.280Z,26.13
2019-01-12T08:10:47.725Z,28.43
2019-01-12T08:13:18.857Z,30.17
2019-01-12T08:15:50.025Z,25.30
2019-01-12T08:18:21.344Z,28.67
2019-01-12T08:20:52.504Z,28.30
2019-01-12T08:23:25.839Z,29.80
2019-01-12T08:25:56.597Z,26.03
2019-01-12T08:28:27.899Z,29.00
2019-01-12T08:30:59.239Z,25.53
2019-01-12T08:33:30.741Z,23.67
2019-01-12T08:36:02.234Z,36.57
2019-01-12T08:38:33.431Z,45.77
2019-01-12T08:41:04.674Z,41.33
2019-01-12T08:43:35.857Z,33.53
2019-01-12T08:46:07.210Z,27.10
2019-01-12T08:48:40.439Z,55.53
2019-01-12T08:51:11.789Z,35.20
2019-01-12T08:53:43.100Z,35.07
2019-01-12T08:56:14.447Z,27.83
2019-01-12T08:58:45.991Z,26.67
2019-01-12T09:01:17.142Z,19.93
2019-01-12T09:03:50.469Z,21.47
2019-01-12T09:06:21.672Z,21.17
2019-01-12T09:08:52.967Z,22.30
2019-01-12T09:11:24.238Z,19.13
2019-01-12T09:13:56.846Z,19.83
2019-01-12T09:16:27.990Z,20.17
2019-01-12T09:18:59.247Z,18.90
2019-01-12T09:21:30.454Z,17.60
2019-01-12T09:24:01.512Z,19.83
2019-01-12T09:26:32.838Z,17.47
2019-01-12T09:29:04.506Z,19.87
2019-01-12T09:31:35.759Z,19.67
2019-01-12T09:34:07.068Z,18.20
2019-01-12T09:36:38.260Z,19.07
2019-01-12T09:39:10.388Z,21.23
2019-01-12T09:41:41.484Z,20.40
2019-01-12T09:44:14.229Z,19.20
2019-01-12T09:46:45.333Z,21.23
2019-01-12T09:49:16.717Z,18.23
2019-01-12T09:51:49.497Z,20.33
2019-01-12T09:54:20.702Z,17.57
2019-01-12T09:56:52.062Z,21.85
2019-01-12T09:59:23.267Z,24.80
2019-01-12T10:01:55.519Z,26.60
2019-01-12T10:04:26.716Z,25.27
2019-01-12T10:06:57.902Z,22.23
2019-01-12T10:09:29.197Z,19.47
2019-01-12T10:12:00.313Z,19.23
2019-01-12T10:14:31.764Z,19.07
2019-01-12T10:17:03.048Z,20.73
2019-01-12T10:19:34.257Z,22.10
2019-01-12T10:22:05.717Z,17.63
2019-01-12T10:24:37.038Z,18.27
2019-01-12T10:27:08.350Z,21.37
2019-01-12T10:29:39.616Z,19.73
2019-01-12T10:32:10.709Z,23.27
2019-01-12T10:34:42.026Z,19.23
2019-01-12T10:37:13.266Z,17.67
2019-01-12T10:39:44.509Z,19.53
2019-01-12T10:42:15.922Z,16.90
2019-01-12T10:44:47.175Z,13.37
2019-01-12T10:47:18.282Z,17.07
2019-01-12T10:49:49.493Z,15.60
2019-01-12T10:52:20.653Z,17.43
2019-01-12T10:54:51.960Z,16.83
2019-01-12T10:57:23.714Z,20.90
2019-01-12T10:59:54.889Z,16.20
2019-01-12T11:02:26.195Z,15.90
2019-01-12T11:04:57.524Z,14.93
2019-01-12T11:07:28.822Z,13.20
2019-01-12T11:10:04.096Z,13.53
2019-01-12T11:12:33.103Z,13.10
2019-01-12T11:15:04.793Z,12.70
2019-01-12T11:17:36.065Z,14.10
2019-01-12T11:20:07.831Z,11.80
2019-01-12T11:22:39.191Z,17.97
2019-01-12T11:25:11.788Z,13.00
2019-01-12T11:27:43.144Z,15.83
2019-01-12T11:30:17.780Z,16.90
2019-01-12T11:32:49.163Z,19.40
2019-01-12T11:35:20.428Z,16.10
2019-01-12T11:37:51.653Z,17.50
2019-01-12T11:40:23.184Z,15.10
2019-01-12T11:42:54.479Z,15.93
2019-01-12T11:45:25.917Z,14.43
2019-01-12T11:47:57.136Z,22.17
2019-01-12T11:50:28.427Z,16.20
2019-01-12T11:53:01.126Z,22.03
2019-01-12T11:55:32.517Z,15.53
2019-01-12T11:58:03.831Z,12.77
2019-01-12T12:00:35.115Z,13.87
2019-01-12T12:03:07.983Z,13.30
2019-01-12T12:05:39.324Z,13.30
2019-01-12T12:08:10.354Z,15.07
2019-01-12T12:10:41.656Z,17.73
2019-01-12T12:13:12.929Z,14.57
2019-01-12T12:15:44.184Z,19.07
2019-01-12T12:18:15.636Z,17.97
2019-01-12T12:20:46.635Z,18.27
2019-01-12T12:23:17.712Z,17.80
2019-01-12T12:25:49.051Z,19.07
2019-01-12T12:28:20.386Z,16.63
2019-01-12T12:30:51.679Z,20.30
2019-01-12T12:33:22.812Z,16.70
2019-01-12T12:35:54.209Z,18.00
2019-01-12T12:38:27.053Z,17.57
2019-01-12T12:40:58.409Z,16.80
2019-01-12T12:43:29.503Z,17.90
2019-01-12T12:46:00.783Z,16.73
2019-01-12T12:48:33.491Z,16.87
2019-01-12T12:51:04.636Z,17.17
2019-01-12T12:53:35.834Z,17.90
2019-01-12T12:56:07.140Z,17.77
2019-01-12T12:58:39.286Z,20.40
2019-01-12T13:01:10.665Z,22.70
2019-01-12T13:03:41.932Z,17.50
2019-01-12T13:06:13.245Z,16.23
2019-01-12T13:08:48.388Z,19.53
2019-01-12T13:11:17.470Z,19.30
2019-01-12T13:13:48.634Z,16.80
2019-01-12T13:16:19.853Z,17.13
2019-01-12T13:18:51.101Z,15.90
2019-01-12T13:21:22.355Z,18.10
2019-01-12T13:23:53.654Z,27.93
2019-01-12T13:26:24.985Z,21.97
2019-01-12T13:28:56.118Z,19.43
2019-01-12T13:31:27.416Z,25.83
2019-01-12T13:33:58.485Z,37.07
2019-01-12T13:36:30.041Z,21.97
2019-01-12T13:39:01.327Z,20.60
2019-01-12T13:41:33.427Z,17.97
2019-01-12T13:44:04.658Z,15.60
2019-01-12T13:46:37.105Z,20.50
2019-01-12T13:49:08.121Z,20.43
2019-01-12T13:51:39.407Z,19.17
2019-01-12T13:54:10.648Z,18.40
2019-01-12T13:56:41.770Z,18.63
2019-01-12T13:59:12.987Z,14.80
2019-01-12T14:01:43.964Z,14.53
2019-01-12T14:04:15.097Z,14.30
2019-01-12T14:06:46.280Z,15.50
2019-01-12T14:09:17.552Z,16.60
2019-01-12T14:11:48.816Z,16.10
2019-01-12T14:14:19.996Z,14.00
2019-01-12T14:16:51.290Z,14.93
2019-01-12T14:19:22.520Z,20.60
2019-01-12T14:21:53.788Z,18.33
2019-01-12T14:24:25.002Z,16.27
2019-01-12T14:26:56.302Z,18.37
2019-01-12T14:29:27.602Z,18.87
2019-01-12T14:31:58.774Z,21.87
2019-01-12T14:34:30.055Z,60.97
2019-01-12T14:37:01.235Z,19.70
2019-01-12T14:39:32.575Z,18.27
2019-01-12T14:42:03.879Z,21.70
2019-01-12T14:44:35.192Z,24.80
2019-01-12T14:47:06.495Z,23.37
2019-01-12T14:49:37.899Z,20.50
2019-01-12T14:52:09.389Z,16.20
2019-01-12T14:54:40.526Z,22.47
2019-01-12T14:57:11.816Z,17.07
2019-01-12T14:59:43.042Z,21.43
2019-01-12T15:02:14.473Z,21.00
2019-01-12T15:04:45.886Z,20.00
2019-01-12T15:07:17.242Z,26.17
2019-01-12T15:09:48.433Z,24.30
2019-01-12T15:12:19.622Z,23.13
2019-01-12T15:14:50.949Z,22.17
2019-01-12T15:17:22.157Z,25.27
2019-01-12T15:19:53.546Z,23.00
2019-01-12T15:22:24.674Z,27.60
2019-01-12T15:24:56.082Z,24.73
2019-01-12T15:27:27.372Z,27.83
2019-01-12T15:29:58.534Z,18.97
2019-01-12T15:32:29.789Z,22.13
2019-01-12T15:35:00.956Z,24.90
2019-01-12T15:37:32.255Z,23.87
2019-01-12T15:40:04.045Z,23.40
2019-01-12T15:42:35.246Z,20.87
2019-01-12T15:45:08.311Z,22.63
2019-01-12T15:47:40.440Z,23.50
2019-01-12T15:50:14.955Z,19.63
2019-01-12T15:52:48.093Z,16.40
2019-01-12T15:55:19.742Z,17.13
2019-01-12T15:57:51.418Z,18.20
2019-01-12T16:00:27.493Z,17.80
2019-01-12T16:02:59.267Z,19.77
2019-01-12T16:05:31.563Z,19.63
2019-01-12T16:08:02.830Z,18.43
2019-01-12T16:10:33.987Z,18.80
2019-01-12T16:13:05.241Z,15.43
2019-01-12T16:15:36.489Z,17.07
2019-01-12T16:18:07.880Z,17.53
2019-01-12T16:20:43.025Z,19.00
2019-01-12T16:23:14.863Z,18.87
2019-01-12T16:25:46.131Z,16.93
2019-01-12T16:28:23.193Z,19.77
2019-01-12T16:30:50.414Z,14.53
2019-01-12T16:33:21.731Z,17.67
2019-01-12T16:35:54.345Z,21.80
2019-01-12T16:38:25.526Z,20.70
2019-01-12T16:40:56.891Z,21.17
2019-01-12T16:43:28.072Z,16.87
2019-01-12T16:46:01.408Z,20.30
2019-01-12T16:48:32.268Z,27.77
2019-01-12T16:51:04.692Z,18.70
2019-01-12T16:53:35.997Z,18.37
2019-01-12T16:56:07.209Z,18.73
2019-01-12T16:58:38.509Z,19.03
2019-01-12T17:01:09.715Z,23.00
2019-01-12T17:03:41.014Z,18.60
2019-01-12T17:06:12.355Z,21.30
2019-01-12T17:08:43.705Z,19.53
2019-01-12T17:11:14.982Z,20.83
2019-01-12T17:13:46.269Z,18.97
2019-01-12T17:16:17.648Z,23.13
2019-01-12T17:18:48.892Z,21.27
2019-01-12T17:21:20.117Z,20.83
2019-01-12T17:23:51.469Z,24.27
2019-01-12T17:26:22.840Z,23.47
2019-01-12T17:28:54.284Z,20.60
2019-01-12T17:31:25.622Z,29.47
2019-01-12T17:33:56.886Z,25.20
2019-01-12T17:36:28.144Z,26.03
2019-01-12T17:38:59.442Z,22.40
2019-01-12T17:41:30.662Z,23.10
2019-01-12T17:44:01.928Z,22.13
2019-01-12T17:46:33.156Z,21.27
2019-01-12T17:49:06.162Z,23.10
2019-01-12T17:51:37.469Z,26.40
2019-01-12T17:54:08.760Z,20.53
2019-01-12T17:56:40.067Z,23.37
2019-01-12T17:59:11.259Z,17.53
2019-01-12T18:01:43.767Z,22.37
2019-01-12T18:04:14.938Z,19.03
2019-01-12T18:06:46.264Z,23.83
2019-01-12T18:09:17.451Z,20.27
2019-01-12T18:11:48.664Z,18.00
2019-01-12T18:14:20.083Z,20.60
2019-01-12T18:16:51.385Z,16.47
2019-01-12T18:19:22.659Z,18.33
2019-01-12T18:21:53.943Z,20.10
2019-01-12T18:24:25.129Z,24.57
2019-01-12T18:26:56.369Z,18.93
2019-01-12T18:29:27.652Z,17.80
2019-01-12T18:31:58.871Z,20.50
2019-01-12T18:34:30.027Z,20.00
2019-01-12T18:37:01.313Z,16.93
2019-01-12T18:39:32.506Z,17.00
2019-01-12T18:42:03.848Z,18.00
2019-01-12T18:44:34.980Z,15.97
2019-01-12T18:47:06.118Z,17.37
2019-01-12T18:49:37.451Z,16.70
2019-01-12T18:52:08.811Z,17.60
2019-01-12T18:54:41.484Z,19.37
2019-01-12T18:57:12.768Z,18.67
2019-01-12T18:59:44.098Z,17.27
2019-01-12T19:02:15.246Z,18.80
2019-01-12T19:04:46.536Z,15.73
2019-01-12T19:07:17.740Z,17.77
2019-01-12T19:09:48.875Z,19.27
2019-01-12T19:12:20.093Z,20.50
2019-01-12T19:14:51.392Z,17.80
2019-01-12T19:17:22.625Z,21.90
2019-01-12T19:19:53.994Z,17.37
2019-01-12T19:22:25.231Z,15.70
2019-01-12T19:24:56.510Z,17.10
2019-01-12T19:27:27.693Z,17.53
2019-01-12T19:29:59.029Z,15.17
2019-01-12T19:32:30.402Z,14.73
2019-01-12T19:35:01.490Z,15.17
2019-01-12T19:37:33.941Z,16.00
2019-01-12T19:40:06.829Z,15.17
2019-01-12T19:42:38.104Z,13.57
2019-01-12T19:45:10.587Z,15.27
2019-01-12T19:47:41.819Z,14.47
2019-01-12T19:50:18.772Z,15.37
2019-01-12T19:52:50.043Z,14.73
2019-01-12T19:55:21.309Z,17.07
2019-01-12T19:57:52.345Z,16.57
2019-01-12T20:00:26.876Z,16.00
2019-01-12T20:02:58.140Z,19.00
2019-01-12T20:05:29.444Z,16.53
2019-01-12T20:08:00.633Z,16.07
2019-01-12T20:10:31.933Z,16.77
2019-01-12T20:13:03.282Z,17.67
2019-01-12T20:15:34.594Z,16.97
2019-01-12T20:18:05.859Z,19.17
2019-01-12T20:20:37.075Z,17.00
2019-01-12T20:23:08.406Z,18.40
2019-01-12T20:25:39.834Z,15.53
2019-01-12T20:28:17.590Z,18.03
2019-01-12T20:31:31.616Z,19.40
2019-01-12T20:34:33.007Z,16.90
2019-01-12T20:37:57.100Z,16.30
2019-01-12T20:40:58.802Z,15.33
2019-01-12T20:43:54.506Z,19.47
2019-01-12T20:47:11.559Z,16.03
2019-01-12T20:49:54.790Z,20.20
2019-01-12T20:52:56.985Z,21.53
2019-01-12T20:56:02.983Z,20.63
2019-01-12T20:59:27.950Z,17.40
2019-01-12T21:02:52.963Z,21.10
2019-01-12T21:06:07.328Z,21.57
2019-01-12T21:09:28.805Z,15.50
2019-01-12T21:12:32.611Z,11.97
2019-01-12T21:15:21.049Z,12.37
2019-01-12T21:17:52.376Z,14.07
2019-01-12T21:20:26.097Z,14.50
2019-01-12T21:22:57.745Z,15.47
2019-01-12T21:25:29.093Z,17.70
2019-01-12T21:28:00.703Z,18.40
2019-01-12T21:30:32.134Z,15.67
2019-01-12T21:33:04.556Z,15.47
2019-01-12T21:35:36.086Z,16.07
2019-01-12T21:38:07.569Z,14.57
2019-01-12T21:40:39.031Z,19.27
2019-01-12T21:43:10.513Z,14.10
2019-01-12T21:45:41.978Z,18.67
2019-01-12T21:48:14.457Z,15.57
2019-01-12T21:50:45.896Z,14.17
2019-01-12T21:53:17.274Z,84.67
2019-01-12T21:55:48.685Z,109.50
2019-01-12T21:58:20.005Z,104.80
2019-01-12T22:00:51.344Z,122.73
2019-01-12T22:03:22.604Z,106.73
2019-01-12T22:05:53.960Z,91.93
2019-01-12T22:08:25.046Z,85.80
2019-01-12T22:10:56.478Z,87.50
2019-01-12T22:13:27.678Z,88.60
2019-01-12T22:15:59.014Z,68.80
2019-01-12T22:18:30.172Z,78.90
2019-01-12T22:21:01.322Z,81.00
2019-01-12T22:23:33.209Z,68.13
2019-01-12T22:26:04.322Z,78.53
2019-01-12T22:28:35.723Z,72.77
2019-01-12T22:31:06.973Z,72.67
2019-01-12T22:33:38.076Z,77.20
2019-01-12T22:36:10.547Z,80.83
2019-01-12T22:38:41.834Z,67.60
2019-01-12T22:41:13.219Z,70.23
2019-01-12T22:43:44.451Z,72.87
2019-01-12T22:46:15.676Z,78.10
2019-01-12T22:48:46.967Z,76.00
2019-01-12T22:51:18.317Z,86.07
2019-01-12T22:53:49.418Z,73.87
2019-01-12T22:56:20.838Z,90.70
2019-01-12T22:58:52.024Z,81.97
2019-01-12T23:01:53.277Z,86.77
2019-01-12T23:04:26.362Z,94.47
2019-01-12T23:06:57.682Z,102.60
2019-01-12T23:09:29.064Z,89.37
2019-01-12T23:12:00.352Z,81.50
2019-01-12T23:14:33.035Z,81.50
2019-01-12T23:17:05.773Z,79.03
2019-01-12T23:19:37.185Z,88.37
2019-01-12T23:22:08.354Z,94.87
2019-01-12T23:24:39.550Z,78.97
2019-01-12T23:27:10.718Z,78.83
2019-01-12T23:29:42.100Z,86.60
2019-01-12T23:32:13.590Z,83.67
2019-01-12T23:34:44.918Z,78.67
2019-01-12T23:37:16.087Z,75.10
2019-01-12T23:39:47.430Z,73.50
2019-01-12T23:42:18.825Z,81.73
2019-01-12T23:44:50.026Z,88.60
2019-01-12T23:47:21.184Z,83.33
2019-01-12T23:49:52.384Z,83.30
2019-01-12T23:52:23.408Z,82.93
2019-01-12T23:54:54.676Z,77.77
2019-01-12T23:57:25.947Z,86.30
2019-01-12T23:59:57.114Z,86.50
